Murdock, Minnesota
Current Conditions -  °F | °C
As of 9:55 PM on Wednesday 22 Oct 2014 (Local Time) from KBDH Reporting Station
Light Rain Light Rain  
Wind Chill: 57°   Ceiling: NA
Heat Index: 57°   Visibility: 10mi
Dew Point: 48°   Wind: 6mph
Humidity: 72%   Direction: 160°SSE
Pressure: 29.98"   Gusts: NA
Location:  45.22°N, 95.39°W
Report Text: KBDH 230255Z AUTO 16005KT 10SM -RA 14/09 A2998 RMK AO2
Loading
Personal Weather Stations






























Interactive Weather Map New forecast layout! Learn more

10-Day Weather Forecast

Advertisements
Track Severe Weather on mobile